createdAt,value
2019-04-07T00:02:08.629Z,95482.38
2019-04-07T00:07:04.064Z,95485.78
2019-04-07T00:11:59.123Z,95482.88
2019-04-07T00:16:54.139Z,95485.16
2019-04-07T00:21:48.764Z,95481.33
2019-04-07T00:26:43.380Z,95484.33
2019-04-07T00:31:38.597Z,95482.88
2019-04-07T00:36:34.111Z,95479.64
2019-04-07T00:41:28.785Z,95484.99
2019-04-07T00:46:23.410Z,95477.41
2019-04-07T00:51:17.966Z,95477.90
2019-04-07T00:56:13.141Z,95490.37
2019-04-07T01:01:09.126Z,95488.29
2019-04-07T01:06:03.801Z,95488.33
2019-04-07T01:10:58.602Z,95491.02
2019-04-07T01:15:53.764Z,95492.77
2019-04-07T01:20:48.624Z,95479.81
2019-04-07T01:25:43.219Z,95481.28
2019-04-07T01:30:37.892Z,95485.16
2019-04-07T01:35:32.983Z,95494.97
2019-04-07T01:40:27.829Z,95494.08
2019-04-07T01:45:24.142Z,95497.25
2019-04-07T01:50:26.449Z,95492.69
2019-04-07T01:55:29.942Z,95492.20
2019-04-07T02:00:42.916Z,95490.11
2019-04-07T02:05:59.820Z,95493.46
2019-04-07T02:10:51.629Z,95481.87
2019-04-07T02:16:04.933Z,95479.09
2019-04-07T02:21:02.137Z,95488.83
2019-04-07T02:25:59.294Z,95497.98
2019-04-07T02:30:56.168Z,95511.51
2019-04-07T02:35:56.036Z,95512.25
2019-04-07T02:40:55.872Z,95523.12
2019-04-07T02:45:57.990Z,95515.36
2019-04-07T02:50:54.940Z,95521.22
2019-04-07T02:56:06.603Z,95525.15
2019-04-07T03:01:09.650Z,95538.94
2019-04-07T03:06:37.487Z,95544.89
2019-04-07T03:11:32.400Z,95544.47
2019-04-07T03:16:26.755Z,95540.48
2019-04-07T03:21:32.967Z,95534.78
2019-04-07T03:26:27.383Z,95533.28
2019-04-07T03:31:27.376Z,95534.41
2019-04-07T03:36:28.489Z,95536.00
2019-04-07T03:41:25.722Z,95532.87
2019-04-07T03:46:25.297Z,95530.78
2019-04-07T03:51:37.763Z,95525.05
2019-04-07T03:56:46.106Z,95532.83
2019-04-07T04:01:59.167Z,95539.14
2019-04-07T04:07:22.376Z,95540.49
2019-04-07T04:12:15.046Z,95537.27
2019-04-07T04:17:09.682Z,95530.73
2019-04-07T04:22:04.261Z,95534.63
2019-04-07T04:26:59.200Z,95535.34
2019-04-07T04:31:54.666Z,95530.71
2019-04-07T04:36:50.222Z,95540.83
2019-04-07T04:41:45.041Z,95543.48
2019-04-07T04:46:39.632Z,95555.97
2019-04-07T04:51:37.011Z,95558.90
2019-04-07T04:56:30.972Z,95564.04
2019-04-07T05:01:26.466Z,95571.20
2019-04-07T05:06:21.409Z,95582.41
2019-04-07T05:11:15.978Z,95569.09
2019-04-07T05:16:10.647Z,95567.55
2019-04-07T05:21:05.280Z,95577.61
2019-04-07T05:26:00.424Z,95585.76
2019-04-07T05:30:55.055Z,95592.56
2019-04-07T05:35:49.665Z,95590.21
2019-04-07T05:40:44.850Z,95598.36
2019-04-07T05:45:39.995Z,95604.23
2019-04-07T05:50:34.975Z,95620.52
2019-04-07T05:55:30.423Z,95622.61
2019-04-07T06:00:26.005Z,95614.77
2019-04-07T06:05:21.242Z,95616.38
2019-04-07T06:10:16.632Z,95617.87
2019-04-07T06:15:17.710Z,95614.61
2019-04-07T06:20:14.250Z,95617.11
2019-04-07T06:25:09.580Z,95629.58
2019-04-07T06:30:08.456Z,95626.95
2019-04-07T06:35:03.876Z,95629.69
2019-04-07T06:39:59.244Z,95627.26
2019-04-07T06:44:54.293Z,95633.22
2019-04-07T06:49:53.589Z,95634.68
2019-04-07T06:54:56.029Z,95636.66
2019-04-07T06:59:50.463Z,95638.30
2019-04-07T07:04:49.761Z,95640.45
2019-04-07T07:09:57.966Z,95645.16
2019-04-07T07:15:03.651Z,95644.67
2019-04-07T07:20:06.800Z,95651.23
2019-04-07T07:25:01.604Z,95636.13
2019-04-07T07:29:56.582Z,95638.61
2019-04-07T07:34:52.083Z,95643.23
2019-04-07T07:39:47.518Z,95637.30
2019-04-07T07:44:42.693Z,95636.84
2019-04-07T07:49:40.281Z,95631.28
2019-04-07T07:54:35.102Z,95636.27
2019-04-07T07:59:33.534Z,95641.33
2019-04-07T08:04:26.972Z,95646.05
2019-04-07T08:09:25.723Z,95644.20
2019-04-07T08:14:19.710Z,95651.30
2019-04-07T08:19:14.635Z,95655.25
2019-04-07T08:24:10.114Z,95659.98
2019-04-07T08:29:06.840Z,95666.29
2019-04-07T08:34:02.223Z,95679.47
2019-04-07T08:38:57.182Z,95677.11
2019-04-07T08:43:55.319Z,95680.77
2019-04-07T08:48:51.843Z,95681.82
2019-04-07T08:53:45.110Z,95692.61
2019-04-07T08:58:40.143Z,95681.02
2019-04-07T09:03:35.785Z,95677.63
2019-04-07T09:08:30.728Z,95675.77
2019-04-07T09:13:25.325Z,95673.09
2019-04-07T09:18:21.557Z,95667.99
2019-04-07T09:23:17.792Z,95671.59
2019-04-07T09:28:21.189Z,95660.77
2019-04-07T09:33:21.596Z,95664.15
2019-04-07T09:38:24.955Z,95660.80
2019-04-07T09:43:19.952Z,95657.72
2019-04-07T09:48:21.776Z,95667.57
2019-04-07T09:53:21.385Z,95675.98
2019-04-07T09:58:23.960Z,95669.95
2019-04-07T10:03:38.088Z,95674.12
2019-04-07T10:08:37.380Z,95675.34
2019-04-07T10:13:39.831Z,95664.48
2019-04-07T10:18:52.275Z,95668.38
2019-04-07T10:24:05.261Z,95673.46
2019-04-07T10:29:01.829Z,95672.70
2019-04-07T10:34:13.448Z,95674.86
2019-04-07T10:39:17.530Z,95678.00
2019-04-07T10:44:29.217Z,95675.63
2019-04-07T10:49:26.196Z,95665.01
2019-04-07T10:54:23.347Z,95667.20
2019-04-07T10:59:23.879Z,95670.77
2019-04-07T11:04:23.068Z,95672.59
2019-04-07T11:09:17.820Z,95661.95
2019-04-07T11:14:12.303Z,95663.75
2019-04-07T11:19:12.983Z,95655.53
2019-04-07T11:24:12.339Z,95657.67
2019-04-07T11:29:17.749Z,95655.23
2019-04-07T11:34:17.397Z,95651.55
2019-04-07T11:39:32.696Z,95656.49
2019-04-07T11:44:30.039Z,95658.06
2019-04-07T11:49:31.979Z,95653.38
2019-04-07T11:54:33.938Z,95663.03
2019-04-07T11:59:39.658Z,95661.06
2019-04-07T12:04:41.757Z,95658.43
2019-04-07T12:09:39.523Z,95650.26
2019-04-07T12:14:51.292Z,95646.39
2019-04-07T12:19:46.305Z,95636.41
2019-04-07T12:25:00.744Z,95645.54
2019-04-07T12:29:58.607Z,95643.23
2019-04-07T12:35:04.237Z,95642.72
2019-04-07T12:40:03.257Z,95654.47
2019-04-07T12:45:10.061Z,95648.71
2019-04-07T12:50:15.514Z,95652.31
2019-04-07T12:55:11.962Z,95647.30
2019-04-07T13:00:25.172Z,95648.37
2019-04-07T13:05:30.440Z,95647.13
2019-04-07T13:10:30.242Z,95648.56
2019-04-07T13:15:45.482Z,95648.81
2019-04-07T13:20:55.343Z,95646.54
2019-04-07T13:25:55.007Z,95647.22
2019-04-07T13:30:50.398Z,95647.39
2019-04-07T13:35:46.612Z,95650.55
2019-04-07T13:40:59.506Z,95652.17
2019-04-07T13:46:19.992Z,95649.98
2019-04-07T13:51:26.880Z,95655.23
2019-04-07T13:56:27.181Z,95656.01
2019-04-07T14:01:23.429Z,95651.02
2019-04-07T14:06:36.239Z,95649.34
2019-04-07T14:11:32.790Z,95653.55
2019-04-07T14:16:46.416Z,95660.83
2019-04-07T14:21:47.305Z,95657.78
2019-04-07T14:26:48.956Z,95653.23
2019-04-07T14:31:54.082Z,95655.05
2019-04-07T14:37:05.380Z,95657.50
2019-04-07T14:42:06.713Z,95663.33
2019-04-07T14:47:16.755Z,95656.78
2019-04-07T14:52:19.866Z,95660.95
2019-04-07T14:57:16.968Z,95669.20
2019-04-07T15:02:12.783Z,95670.25
2019-04-07T15:07:12.058Z,95670.41
2019-04-07T15:12:17.091Z,95669.17
2019-04-07T15:17:05.782Z,95672.14
2019-04-07T15:22:02.315Z,95671.55
2019-04-07T15:26:57.780Z,95675.94
2019-04-07T15:31:53.166Z,95688.73
2019-04-07T15:36:49.720Z,95679.77
2019-04-07T15:41:45.480Z,95687.69
2019-04-07T15:46:41.505Z,95696.25
2019-04-07T15:51:36.257Z,95700.61
2019-04-07T15:56:31.458Z,95696.38
2019-04-07T16:01:26.902Z,95698.94
2019-04-07T16:06:21.888Z,95710.34
2019-04-07T16:11:17.652Z,95709.34
2019-04-07T16:16:13.445Z,95720.62
2019-04-07T16:21:09.482Z,95721.38
2019-04-07T16:26:04.860Z,95723.24
2019-04-07T16:30:59.643Z,95725.83
2019-04-07T16:35:56.322Z,95730.91
2019-04-07T16:40:50.817Z,95746.77
2019-04-07T16:45:46.290Z,95749.45
2019-04-07T16:50:41.932Z,95757.39
2019-04-07T16:55:41.579Z,95764.95
2019-04-07T17:00:36.538Z,95769.34
2019-04-07T17:05:32.206Z,95774.26
2019-04-07T17:10:32.351Z,95787.30
2019-04-07T17:15:23.767Z,95792.17
2019-04-07T17:20:18.967Z,95798.56
2019-04-07T17:25:15.087Z,95805.70
2019-04-07T17:30:23.644Z,95807.84
2019-04-07T17:35:18.920Z,95808.62
2019-04-07T17:40:17.184Z,95813.62
2019-04-07T17:45:29.733Z,95819.47
2019-04-07T17:50:42.334Z,95837.41
2019-04-07T17:55:36.851Z,95848.50
2019-04-07T18:00:50.665Z,95851.40
2019-04-07T18:05:45.652Z,95859.30
2019-04-07T18:10:50.717Z,95869.02
2019-04-07T18:15:54.366Z,95874.79
2019-04-07T18:20:57.137Z,95882.69
2019-04-07T18:26:10.617Z,95886.30
2019-04-07T18:31:22.627Z,95893.61
2019-04-07T18:36:37.759Z,95900.43
2019-04-07T18:41:50.533Z,95904.58
2019-04-07T18:46:50.132Z,95915.06
2019-04-07T18:51:51.840Z,95924.22
2019-04-07T18:56:49.558Z,95938.91
2019-04-07T19:01:52.237Z,95949.27
2019-04-07T19:07:02.205Z,95958.22
2019-04-07T19:12:07.969Z,95965.22
2019-04-07T19:17:17.178Z,95971.19
2019-04-07T19:22:26.700Z,95979.00
2019-04-07T19:27:39.013Z,95988.89
2019-04-07T19:32:33.408Z,95998.64
2019-04-07T19:37:32.544Z,96000.48
2019-04-07T19:42:31.832Z,96000.37
2019-04-07T19:47:32.845Z,96009.98
2019-04-07T19:52:42.911Z,95999.22
2019-04-07T19:57:42.726Z,96010.41
2019-04-07T20:02:44.815Z,96025.97
2019-04-07T20:08:08.190Z,96031.64
2019-04-07T20:13:16.361Z,96041.28
2019-04-07T20:18:16.665Z,96041.34
2019-04-07T20:23:19.780Z,96033.94
2019-04-07T20:28:30.253Z,96033.89
2019-04-07T20:33:23.517Z,96036.80
2019-04-07T20:38:25.521Z,96031.97
2019-04-07T20:43:21.735Z,96035.32
2019-04-07T20:48:17.526Z,96038.98
2019-04-07T20:53:23.204Z,96037.84
2019-04-07T20:58:43.754Z,96041.52
2019-04-07T21:03:27.957Z,96040.96
2019-04-07T21:08:30.217Z,96041.10
2019-04-07T21:13:25.638Z,96046.99
2019-04-07T21:18:34.940Z,96044.03
2019-04-07T21:23:31.621Z,96050.37
2019-04-07T21:28:43.919Z,96049.81
2019-04-07T21:33:41.305Z,96051.34
2019-04-07T21:38:45.402Z,96058.23
2019-04-07T21:43:42.678Z,96061.86
2019-04-07T21:48:39.185Z,96066.56
2019-04-07T21:53:35.486Z,96067.42
2019-04-07T21:58:48.630Z,96073.30
2019-04-07T22:04:00.947Z,96062.61
2019-04-07T22:09:00.301Z,96067.26
2019-04-07T22:13:55.407Z,96069.07
2019-04-07T22:18:51.204Z,96070.24
2019-04-07T22:23:46.431Z,96078.42
2019-04-07T22:28:41.571Z,96076.83
2019-04-07T22:33:36.861Z,96090.82
2019-04-07T22:38:31.771Z,96091.75
2019-04-07T22:43:26.510Z,96093.13
2019-04-07T22:48:25.289Z,96100.67
2019-04-07T22:53:21.299Z,96100.63
2019-04-07T22:58:13.940Z,96092.13
2019-04-07T23:03:08.689Z,96097.80
2019-04-07T23:08:04.041Z,96099.48
2019-04-07T23:12:59.406Z,96096.79
2019-04-07T23:17:54.361Z,96100.89
2019-04-07T23:22:49.943Z,96106.22
2019-04-07T23:27:45.585Z,96111.70
2019-04-07T23:32:41.421Z,96113.05
2019-04-07T23:37:36.957Z,96118.62
2019-04-07T23:42:32.670Z,96118.12
2019-04-07T23:47:27.350Z,96132.95
2019-04-07T23:52:22.939Z,96127.91
2019-04-07T23:57:17.811Z,96135.36
